sensor_id;sensor_type;location;lat;lon;timestamp;pressure;altitude;pressure_sealevel;temperature;humidity
27840;BME280;15207;42.182;24.308;2022-11-14T00:00:35;100435.22;;;4.02;100.00
27840;BME280;15207;42.182;24.308;2022-11-14T00:03:04;100436.09;;;4.28;100.00
27840;BME280;15207;42.182;24.308;2022-11-14T00:05:30;100428.63;;;4.14;99.48
27840;BME280;15207;42.182;24.308;2022-11-14T00:07:56;100424.44;;;4.06;100.00
27840;BME280;15207;42.182;24.308;2022-11-14T00:10:22;100431.41;;;4.09;100.00
27840;BME280;15207;42.182;24.308;2022-11-14T00:12:48;100425.75;;;4.20;100.00
27840;BME280;15207;42.182;24.308;2022-11-14T00:15:13;100422.25;;;4.19;100.00
27840;BME280;15207;42.182;24.308;2022-11-14T00:17:40;100420.19;;;4.28;99.92
27840;BME280;15207;42.182;24.308;2022-11-14T00:20:06;100420.44;;;4.20;100.00
27840;BME280;15207;42.182;24.308;2022-11-14T00:22:33;100413.69;;;4.11;97.92
27840;BME280;15207;42.182;24.308;2022-11-14T00:24:58;100419.47;;;3.97;97.03
27840;BME280;15207;42.182;24.308;2022-11-14T00:27:24;100421.25;;;3.96;97.75
27840;BME280;15207;42.182;24.308;2022-11-14T00:29:49;100420.63;;;3.88;98.07
27840;BME280;15207;42.182;24.308;2022-11-14T00:32:15;100418.06;;;3.87;99.53
27840;BME280;15207;42.182;24.308;2022-11-14T00:34:41;100418.91;;;3.87;100.00
27840;BME280;15207;42.182;24.308;2022-11-14T00:37:06;100411.97;;;3.83;99.94
27840;BME280;15207;42.182;24.308;2022-11-14T00:39:32;100410.16;;;3.85;100.00
27840;BME280;15207;42.182;24.308;2022-11-14T00:41:57;100406.13;;;3.73;99.26
27840;BME280;15207;42.182;24.308;2022-11-14T00:44:23;100410.03;;;3.61;99.05
27840;BME280;15207;42.182;24.308;2022-11-14T00:46:49;100399.53;;;3.58;99.29
27840;BME280;15207;42.182;24.308;2022-11-14T00:49:14;100389.72;;;3.62;100.00
27840;BME280;15207;42.182;24.308;2022-11-14T00:51:40;100387.06;;;3.62;100.00
27840;BME280;15207;42.182;24.308;2022-11-14T00:54:05;100393.97;;;3.66;100.00
27840;BME280;15207;42.182;24.308;2022-11-14T00:56:31;100397.53;;;3.65;98.92
27840;BME280;15207;42.182;24.308;2022-11-14T00:58:56;100388.03;;;3.59;98.11
27840;BME280;15207;42.182;24.308;2022-11-14T01:01:22;100385.44;;;3.57;97.05
27840;BME280;15207;42.182;24.308;2022-11-14T01:03:49;100381.72;;;3.35;96.70
27840;BME280;15207;42.182;24.308;2022-11-14T01:06:15;100390.00;;;3.24;96.86
27840;BME280;15207;42.182;24.308;2022-11-14T01:08:42;100385.72;;;3.20;96.95
27840;BME280;15207;42.182;24.308;2022-11-14T01:11:19;100391.50;;;2.74;98.92
27840;BME280;15207;42.182;24.308;2022-11-14T01:13:45;100389.38;;;2.55;100.00
27840;BME280;15207;42.182;24.308;2022-11-14T01:16:11;100392.34;;;2.43;100.00
27840;BME280;15207;42.182;24.308;2022-11-14T01:18:38;100385.63;;;2.62;100.00
27840;BME280;15207;42.182;24.308;2022-11-14T01:21:08;100380.00;;;2.75;100.00
27840;BME280;15207;42.182;24.308;2022-11-14T01:23:35;100384.56;;;3.00;100.00
27840;BME280;15207;42.182;24.308;2022-11-14T01:26:11;100376.19;;;3.14;100.00
27840;BME280;15207;42.182;24.308;2022-11-14T01:28:38;100369.88;;;3.18;100.00
27840;BME280;15207;42.182;24.308;2022-11-14T01:31:12;100373.75;;;3.08;99.91
27840;BME280;15207;42.182;24.308;2022-11-14T01:33:39;100380.91;;;3.04;99.07
27840;BME280;15207;42.182;24.308;2022-11-14T01:36:05;100376.75;;;3.24;99.70
27840;BME280;15207;42.182;24.308;2022-11-14T01:38:31;100372.00;;;3.35;98.67
27840;BME280;15207;42.182;24.308;2022-11-14T01:40:57;100369.50;;;3.30;98.41
27840;BME280;15207;42.182;24.308;2022-11-14T01:43:25;100366.03;;;3.28;97.61
27840;BME280;15207;42.182;24.308;2022-11-14T01:45:52;100361.69;;;3.26;97.54
27840;BME280;15207;42.182;24.308;2022-11-14T01:48:25;100356.91;;;3.10;96.95
27840;BME280;15207;42.182;24.308;2022-11-14T01:53:42;100361.75;;;2.96;100.00
27840;BME280;15207;42.182;24.308;2022-11-14T01:56:10;100358.69;;;3.08;100.00
27840;BME280;15207;42.182;24.308;2022-11-14T01:58:39;100360.59;;;3.04;100.00
27840;BME280;15207;42.182;24.308;2022-11-14T02:01:06;100350.53;;;3.16;100.00
27840;BME280;15207;42.182;24.308;2022-11-14T02:03:35;100343.28;;;3.21;100.00
27840;BME280;15207;42.182;24.308;2022-11-14T02:06:03;100345.81;;;3.26;100.00
27840;BME280;15207;42.182;24.308;2022-11-14T02:08:31;100347.19;;;3.38;100.00
27840;BME280;15207;42.182;24.308;2022-11-14T02:10:57;100354.03;;;3.16;100.00
27840;BME280;15207;42.182;24.308;2022-11-14T02:13:23;100348.56;;;2.94;100.00
27840;BME280;15207;42.182;24.308;2022-11-14T02:15:49;100349.16;;;3.04;100.00
27840;BME280;15207;42.182;24.308;2022-11-14T02:18:14;100339.38;;;3.06;100.00
27840;BME280;15207;42.182;24.308;2022-11-14T02:20:40;100345.34;;;3.13;99.91
27840;BME280;15207;42.182;24.308;2022-11-14T02:23:10;100346.59;;;3.01;100.00
27840;BME280;15207;42.182;24.308;2022-11-14T02:25:37;100342.22;;;3.00;100.00
27840;BME280;15207;42.182;24.308;2022-11-14T02:28:04;100343.06;;;3.00;99.37
27840;BME280;15207;42.182;24.308;2022-11-14T02:30:31;100347.91;;;2.86;98.61
27840;BME280;15207;42.182;24.308;2022-11-14T02:32:57;100338.44;;;2.78;98.46
27840;BME280;15207;42.182;24.308;2022-11-14T02:35:23;100349.94;;;2.77;98.88
27840;BME280;15207;42.182;24.308;2022-11-14T02:37:49;100344.50;;;2.82;97.91
27840;BME280;15207;42.182;24.308;2022-11-14T02:40:15;100339.19;;;2.82;99.27
27840;BME280;15207;42.182;24.308;2022-11-14T02:42:41;100341.72;;;2.87;98.82
27840;BME280;15207;42.182;24.308;2022-11-14T02:45:07;100338.03;;;2.62;97.85
27840;BME280;15207;42.182;24.308;2022-11-14T02:47:33;100335.88;;;2.45;97.80
27840;BME280;15207;42.182;24.308;2022-11-14T02:49:58;100340.59;;;2.34;98.31
27840;BME280;15207;42.182;24.308;2022-11-14T02:52:24;100338.72;;;2.37;99.02
27840;BME280;15207;42.182;24.308;2022-11-14T02:54:50;100337.00;;;2.36;99.36
27840;BME280;15207;42.182;24.308;2022-11-14T02:57:15;100340.22;;;2.16;100.00
27840;BME280;15207;42.182;24.308;2022-11-14T02:59:41;100332.78;;;1.97;99.39
27840;BME280;15207;42.182;24.308;2022-11-14T03:02:06;100337.78;;;2.08;99.63
27840;BME280;15207;42.182;24.308;2022-11-14T03:04:32;100335.78;;;2.17;100.00
27840;BME280;15207;42.182;24.308;2022-11-14T03:06:58;100330.38;;;2.21;100.00
27840;BME280;15207;42.182;24.308;2022-11-14T03:09:23;100339.16;;;2.22;100.00
27840;BME280;15207;42.182;24.308;2022-11-14T03:11:49;100340.84;;;2.24;100.00
27840;BME280;15207;42.182;24.308;2022-11-14T03:14:14;100339.09;;;2.25;100.00
27840;BME280;15207;42.182;24.308;2022-11-14T03:16:40;100340.13;;;2.19;100.00
27840;BME280;15207;42.182;24.308;2022-11-14T03:19:06;100345.19;;;2.27;100.00
27840;BME280;15207;42.182;24.308;2022-11-14T03:21:32;100337.03;;;2.35;100.00
27840;BME280;15207;42.182;24.308;2022-11-14T03:23:58;100333.59;;;2.33;100.00
27840;BME280;15207;42.182;24.308;2022-11-14T03:26:23;100339.78;;;2.32;100.00
27840;BME280;15207;42.182;24.308;2022-11-14T03:28:49;100333.78;;;2.57;100.00
27840;BME280;15207;42.182;24.308;2022-11-14T03:31:15;100338.94;;;2.61;100.00
27840;BME280;15207;42.182;24.308;2022-11-14T03:33:41;100340.63;;;2.64;100.00
27840;BME280;15207;42.182;24.308;2022-11-14T03:36:07;100335.34;;;2.64;98.83
27840;BME280;15207;42.182;24.308;2022-11-14T03:38:33;100332.25;;;2.78;99.04
27840;BME280;15207;42.182;24.308;2022-11-14T03:40:59;100327.28;;;2.69;98.71
27840;BME280;15207;42.182;24.308;2022-11-14T03:43:25;100332.03;;;2.86;98.76
27840;BME280;15207;42.182;24.308;2022-11-14T03:45:57;100336.50;;;2.84;98.40
27840;BME280;15207;42.182;24.308;2022-11-14T03:48:22;100318.47;;;2.68;96.55
27840;BME280;15207;42.182;24.308;2022-11-14T03:50:48;100321.41;;;2.57;96.74
27840;BME280;15207;42.182;24.308;2022-11-14T03:53:13;100324.47;;;2.43;96.34
27840;BME280;15207;42.182;24.308;2022-11-14T03:55:39;100328.13;;;2.39;96.97
27840;BME280;15207;42.182;24.308;2022-11-14T03:58:07;100329.38;;;2.25;98.12
27840;BME280;15207;42.182;24.308;2022-11-14T04:00:32;100329.44;;;2.24;99.16
27840;BME280;15207;42.182;24.308;2022-11-14T04:02:58;100336.50;;;2.23;98.95
27840;BME280;15207;42.182;24.308;2022-11-14T04:05:25;100329.66;;;2.16;98.05
27840;BME280;15207;42.182;24.308;2022-11-14T04:07:50;100338.09;;;1.96;97.55
27840;BME280;15207;42.182;24.308;2022-11-14T04:10:16;100333.94;;;1.87;97.13
27840;BME280;15207;42.182;24.308;2022-11-14T04:12:50;100338.53;;;1.80;98.46
27840;BME280;15207;42.182;24.308;2022-11-14T04:15:16;100339.34;;;1.82;98.84
27840;BME280;15207;42.182;24.308;2022-11-14T04:17:43;100336.84;;;1.76;99.77
27840;BME280;15207;42.182;24.308;2022-11-14T04:20:09;100335.81;;;1.83;100.00
27840;BME280;15207;42.182;24.308;2022-11-14T04:22:35;100339.19;;;1.89;100.00
27840;BME280;15207;42.182;24.308;2022-11-14T04:25:01;100334.19;;;2.11;100.00
27840;BME280;15207;42.182;24.308;2022-11-14T04:27:26;100338.28;;;1.90;100.00
27840;BME280;15207;42.182;24.308;2022-11-14T04:29:52;100335.28;;;1.69;100.00
27840;BME280;15207;42.182;24.308;2022-11-14T04:32:18;100334.47;;;1.65;100.00
27840;BME280;15207;42.182;24.308;2022-11-14T04:34:43;100338.81;;;1.68;100.00
27840;BME280;15207;42.182;24.308;2022-11-14T04:37:09;100342.09;;;1.78;100.00
27840;BME280;15207;42.182;24.308;2022-11-14T04:39:35;100338.72;;;1.73;100.00
27840;BME280;15207;42.182;24.308;2022-11-14T04:42:00;100335.66;;;1.88;100.00
27840;BME280;15207;42.182;24.308;2022-11-14T04:44:26;100344.47;;;1.89;100.00
27840;BME280;15207;42.182;24.308;2022-11-14T04:46:52;100344.09;;;2.03;100.00
27840;BME280;15207;42.182;24.308;2022-11-14T04:49:17;100345.63;;;2.11;100.00
27840;BME280;15207;42.182;24.308;2022-11-14T04:51:43;100338.25;;;2.23;100.00
27840;BME280;15207;42.182;24.308;2022-11-14T04:54:08;100349.50;;;2.31;100.00
27840;BME280;15207;42.182;24.308;2022-11-14T04:56:34;100345.19;;;2.27;99.49
27840;BME280;15207;42.182;24.308;2022-11-14T04:59:00;100357.19;;;2.07;97.50
27840;BME280;15207;42.182;24.308;2022-11-14T05:01:25;100358.34;;;1.97;96.82
27840;BME280;15207;42.182;24.308;2022-11-14T05:03:51;100353.16;;;1.94;96.65
27840;BME280;15207;42.182;24.308;2022-11-14T05:06:17;100363.84;;;1.88;97.34
27840;BME280;15207;42.182;24.308;2022-11-14T05:08:43;100360.97;;;1.97;98.49
27840;BME280;15207;42.182;24.308;2022-11-14T05:11:15;100368.63;;;2.08;97.37
27840;BME280;15207;42.182;24.308;2022-11-14T05:13:42;100358.72;;;2.16;96.44
27840;BME280;15207;42.182;24.308;2022-11-14T05:16:07;100355.44;;;2.06;96.94
27840;BME280;15207;42.182;24.308;2022-11-14T05:18:33;100351.78;;;2.12;97.47
27840;BME280;15207;42.182;24.308;2022-11-14T05:20:59;100358.75;;;2.15;98.48
27840;BME280;15207;42.182;24.308;2022-11-14T05:23:26;100365.03;;;2.10;99.73
27840;BME280;15207;42.182;24.308;2022-11-14T05:26:02;100370.09;;;2.20;100.00
27840;BME280;15207;42.182;24.308;2022-11-14T05:28:28;100372.91;;;2.14;99.75
27840;BME280;15207;42.182;24.308;2022-11-14T05:31:11;100373.25;;;2.00;99.90
27840;BME280;15207;42.182;24.308;2022-11-14T05:33:44;100373.63;;;1.85;100.00
27840;BME280;15207;42.182;24.308;2022-11-14T05:36:13;100377.94;;;1.88;100.00
27840;BME280;15207;42.182;24.308;2022-11-14T05:38:39;100374.53;;;1.84;100.00
27840;BME280;15207;42.182;24.308;2022-11-14T05:41:06;100394.78;;;1.84;100.00
27840;BME280;15207;42.182;24.308;2022-11-14T05:43:33;100385.88;;;1.88;100.00
27840;BME280;15207;42.182;24.308;2022-11-14T05:46:00;100389.69;;;1.76;98.54
27840;BME280;15207;42.182;24.308;2022-11-14T05:48:26;100410.72;;;1.81;98.51
27840;BME280;15207;42.182;24.308;2022-11-14T05:50:56;100403.75;;;1.78;99.03
27840;BME280;15207;42.182;24.308;2022-11-14T05:53:22;100398.94;;;1.94;99.13
27840;BME280;15207;42.182;24.308;2022-11-14T05:55:48;100397.75;;;2.06;99.16
27840;BME280;15207;42.182;24.308;2022-11-14T05:58:13;100399.91;;;2.25;100.00
27840;BME280;15207;42.182;24.308;2022-11-14T06:00:39;100397.41;;;2.52;100.00
27840;BME280;15207;42.182;24.308;2022-11-14T06:03:04;100394.38;;;2.66;99.73
27840;BME280;15207;42.182;24.308;2022-11-14T06:05:30;100395.53;;;2.56;98.50
27840;BME280;15207;42.182;24.308;2022-11-14T06:07:57;100396.53;;;2.51;98.51
27840;BME280;15207;42.182;24.308;2022-11-14T06:10:22;100392.13;;;2.50;99.30
27840;BME280;15207;42.182;24.308;2022-11-14T06:12:48;100402.56;;;2.57;99.43
27840;BME280;15207;42.182;24.308;2022-11-14T06:15:14;100399.00;;;2.58;98.53
27840;BME280;15207;42.182;24.308;2022-11-14T06:17:40;100402.16;;;2.71;97.55
27840;BME280;15207;42.182;24.308;2022-11-14T06:20:06;100401.34;;;2.69;97.83
27840;BME280;15207;42.182;24.308;2022-11-14T06:22:32;100415.22;;;2.77;97.99
27840;BME280;15207;42.182;24.308;2022-11-14T06:25:01;100420.53;;;2.75;98.37
27840;BME280;15207;42.182;24.308;2022-11-14T06:27:27;100418.56;;;2.84;98.80
27840;BME280;15207;42.182;24.308;2022-11-14T06:29:53;100412.06;;;2.94;99.22
27840;BME280;15207;42.182;24.308;2022-11-14T06:32:18;100405.00;;;2.95;99.65
27840;BME280;15207;42.182;24.308;2022-11-14T06:34:44;100399.97;;;3.15;100.00
27840;BME280;15207;42.182;24.308;2022-11-14T06:37:10;100404.06;;;3.26;99.52
27840;BME280;15207;42.182;24.308;2022-11-14T06:39:35;100409.09;;;3.35;100.00
27840;BME280;15207;42.182;24.308;2022-11-14T06:42:02;100407.97;;;3.42;100.00
27840;BME280;15207;42.182;24.308;2022-11-14T06:44:29;100397.53;;;3.65;100.00
27840;BME280;15207;42.182;24.308;2022-11-14T06:46:57;100403.22;;;3.81;100.00
27840;BME280;15207;42.182;24.308;2022-11-14T06:49:23;100398.31;;;3.95;100.00
27840;BME280;15207;42.182;24.308;2022-11-14T06:51:50;100399.59;;;4.09;100.00
27840;BME280;15207;42.182;24.308;2022-11-14T06:54:16;100398.72;;;4.34;100.00
27840;BME280;15207;42.182;24.308;2022-11-14T06:56:42;100401.72;;;4.50;100.00
27840;BME280;15207;42.182;24.308;2022-11-14T06:59:08;100403.34;;;4.54;100.00
27840;BME280;15207;42.182;24.308;2022-11-14T07:01:34;100405.72;;;4.62;100.00
27840;BME280;15207;42.182;24.308;2022-11-14T07:03:59;100401.63;;;4.77;100.00
27840;BME280;15207;42.182;24.308;2022-11-14T07:06:28;100406.06;;;5.00;100.00
27840;BME280;15207;42.182;24.308;2022-11-14T07:08:56;100392.25;;;5.14;100.00
27840;BME280;15207;42.182;24.308;2022-11-14T07:11:23;100392.00;;;5.43;100.00
27840;BME280;15207;42.182;24.308;2022-11-14T07:13:51;100396.75;;;5.57;100.00
27840;BME280;15207;42.182;24.308;2022-11-14T07:16:18;100391.53;;;5.55;100.00
27840;BME280;15207;42.182;24.308;2022-11-14T07:18:44;100390.00;;;5.71;100.00
27840;BME280;15207;42.182;24.308;2022-11-14T07:21:10;100379.56;;;5.88;100.00
27840;BME280;15207;42.182;24.308;2022-11-14T07:23:39;100383.84;;;6.13;99.74
27840;BME280;15207;42.182;24.308;2022-11-14T07:26:07;100382.56;;;6.22;99.51
27840;BME280;15207;42.182;24.308;2022-11-14T07:28:33;100385.94;;;6.46;98.91
27840;BME280;15207;42.182;24.308;2022-11-14T07:31:07;100383.09;;;6.51;98.71
27840;BME280;15207;42.182;24.308;2022-11-14T07:33:34;100377.53;;;6.56;97.80
27840;BME280;15207;42.182;24.308;2022-11-14T07:36:00;100380.22;;;6.75;97.36
27840;BME280;15207;42.182;24.308;2022-11-14T07:38:25;100374.75;;;6.78;97.24
27840;BME280;15207;42.182;24.308;2022-11-14T07:41:02;100369.56;;;6.75;98.08
27840;BME280;15207;42.182;24.308;2022-11-14T07:43:30;100360.50;;;6.79;99.06
27840;BME280;15207;42.182;24.308;2022-11-14T07:46:17;100375.41;;;7.03;98.81
27840;BME280;15207;42.182;24.308;2022-11-14T07:48:44;100374.25;;;7.08;97.70
27840;BME280;15207;42.182;24.308;2022-11-14T07:51:14;100372.69;;;7.23;97.97
27840;BME280;15207;42.182;24.308;2022-11-14T07:53:40;100363.94;;;7.39;96.95
27840;BME280;15207;42.182;24.308;2022-11-14T07:56:07;100367.38;;;7.41;96.47
27840;BME280;15207;42.182;24.308;2022-11-14T07:58:39;100368.06;;;7.64;96.61
27840;BME280;15207;42.182;24.308;2022-11-14T08:01:06;100363.13;;;7.74;95.53
27840;BME280;15207;42.182;24.308;2022-11-14T08:03:33;100361.53;;;8.05;94.62
27840;BME280;15207;42.182;24.308;2022-11-14T08:06:03;100368.44;;;8.09;94.39
27840;BME280;15207;42.182;24.308;2022-11-14T08:08:30;100361.75;;;8.18;92.96
27840;BME280;15207;42.182;24.308;2022-11-14T08:10:57;100359.69;;;8.41;91.66
27840;BME280;15207;42.182;24.308;2022-11-14T08:13:24;100358.53;;;8.46;90.41
27840;BME280;15207;42.182;24.308;2022-11-14T08:15:50;100366.53;;;8.46;89.63
27840;BME280;15207;42.182;24.308;2022-11-14T08:18:16;100361.25;;;8.45;90.55
27840;BME280;15207;42.182;24.308;2022-11-14T08:20:42;100361.00;;;8.67;90.44
27840;BME280;15207;42.182;24.308;2022-11-14T08:23:08;100361.00;;;8.83;90.08
27840;BME280;15207;42.182;24.308;2022-11-14T08:25:34;100351.38;;;8.97;90.16
27840;BME280;15207;42.182;24.308;2022-11-14T08:28:00;100353.16;;;9.45;87.91
27840;BME280;15207;42.182;24.308;2022-11-14T08:30:25;100350.56;;;9.59;85.29
27840;BME280;15207;42.182;24.308;2022-11-14T08:32:51;100346.19;;;9.73;84.87
27840;BME280;15207;42.182;24.308;2022-11-14T08:35:17;100339.16;;;9.86;83.97
27840;BME280;15207;42.182;24.308;2022-11-14T08:37:42;100343.59;;;10.02;83.54
27840;BME280;15207;42.182;24.308;2022-11-14T08:40:08;100339.28;;;10.44;81.95
27840;BME280;15207;42.182;24.308;2022-11-14T08:42:34;100332.19;;;10.58;80.37
27840;BME280;15207;42.182;24.308;2022-11-14T08:44:59;100334.13;;;10.70;79.57
27840;BME280;15207;42.182;24.308;2022-11-14T08:47:25;100331.94;;;11.05;77.41
27840;BME280;15207;42.182;24.308;2022-11-14T08:49:50;100335.72;;;11.30;77.45
27840;BME280;15207;42.182;24.308;2022-11-14T08:52:16;100327.66;;;11.30;76.05
27840;BME280;15207;42.182;24.308;2022-11-14T08:54:41;100332.19;;;11.70;73.48
27840;BME280;15207;42.182;24.308;2022-11-14T08:57:07;100329.97;;;11.89;71.61
27840;BME280;15207;42.182;24.308;2022-11-14T08:59:32;100324.41;;;11.93;70.44
27840;BME280;15207;42.182;24.308;2022-11-14T09:01:58;100320.59;;;11.82;71.27
27840;BME280;15207;42.182;24.308;2022-11-14T09:04:24;100324.75;;;12.14;71.05
27840;BME280;15207;42.182;24.308;2022-11-14T09:06:50;100314.22;;;12.50;68.41
27840;BME280;15207;42.182;24.308;2022-11-14T09:09:16;100305.41;;;12.48;67.87
27840;BME280;15207;42.182;24.308;2022-11-14T09:11:42;100307.28;;;12.72;67.99
27840;BME280;15207;42.182;24.308;2022-11-14T09:14:08;100308.16;;;12.72;67.29
27840;BME280;15207;42.182;24.308;2022-11-14T09:16:34;100305.47;;;12.72;69.10
27840;BME280;15207;42.182;24.308;2022-11-14T09:18:59;100297.59;;;12.82;69.41
27840;BME280;15207;42.182;24.308;2022-11-14T09:21:25;100292.53;;;13.15;67.12
27840;BME280;15207;42.182;24.308;2022-11-14T09:23:51;100292.34;;;13.29;66.56
27840;BME280;15207;42.182;24.308;2022-11-14T09:26:17;100288.88;;;13.16;66.79
27840;BME280;15207;42.182;24.308;2022-11-14T09:28:43;100283.03;;;13.22;67.15
27840;BME280;15207;42.182;24.308;2022-11-14T09:31:10;100282.00;;;13.12;65.63
27840;BME280;15207;42.182;24.308;2022-11-14T09:33:36;100269.91;;;12.93;66.60
27840;BME280;15207;42.182;24.308;2022-11-14T09:36:06;100271.16;;;13.00;65.64
27840;BME280;15207;42.182;24.308;2022-11-14T09:38:33;100264.53;;;12.93;66.47
27840;BME280;15207;42.182;24.308;2022-11-14T09:46:38;100256.00;;;12.99;64.06
27840;BME280;15207;42.182;24.308;2022-11-14T09:51:51;100245.78;;;13.04;65.34
27840;BME280;15207;42.182;24.308;2022-11-14T09:54:22;100245.03;;;13.27;65.13
27840;BME280;15207;42.182;24.308;2022-11-14T09:56:49;100250.88;;;13.20;63.77
27840;BME280;15207;42.182;24.308;2022-11-14T09:59:15;100239.09;;;13.10;64.29
27840;BME280;15207;42.182;24.308;2022-11-14T10:02:02;100239.97;;;13.11;64.87
27840;BME280;15207;42.182;24.308;2022-11-14T10:10:02;100221.31;;;13.32;63.25
27840;BME280;15207;42.182;24.308;2022-11-14T10:15:14;100218.88;;;13.04;65.85
27840;BME280;15207;42.182;24.308;2022-11-14T10:18:10;100209.97;;;13.04;65.85
27840;BME280;15207;42.182;24.308;2022-11-14T10:20:52;100207.72;;;13.22;65.72
27840;BME280;15207;42.182;24.308;2022-11-14T10:31:27;100195.41;;;13.42;66.34
27840;BME280;15207;42.182;24.308;2022-11-14T10:39:15;100193.81;;;13.75;65.46
27840;BME280;15207;42.182;24.308;2022-11-14T10:41:43;100180.34;;;13.64;64.73
27840;BME280;15207;42.182;24.308;2022-11-14T10:44:15;100178.34;;;13.19;66.60
27840;BME280;15207;42.182;24.308;2022-11-14T10:46:49;100178.63;;;13.16;66.97
27840;BME280;15207;42.182;24.308;2022-11-14T10:49:20;100175.72;;;12.94;67.38
27840;BME280;15207;42.182;24.308;2022-11-14T10:51:53;100162.56;;;13.03;67.52
27840;BME280;15207;42.182;24.308;2022-11-14T10:57:13;100162.88;;;13.34;66.21
27840;BME280;15207;42.182;24.308;2022-11-14T10:59:40;100162.00;;;13.22;66.23
27840;BME280;15207;42.182;24.308;2022-11-14T11:02:08;100160.16;;;13.22;66.01
27840;BME280;15207;42.182;24.308;2022-11-14T11:04:35;100164.19;;;13.17;66.39
27840;BME280;15207;42.182;24.308;2022-11-14T11:09:38;100150.28;;;13.34;65.67
27840;BME280;15207;42.182;24.308;2022-11-14T11:12:50;100143.88;;;13.48;64.27
27840;BME280;15207;42.182;24.308;2022-11-14T11:15:18;100139.59;;;13.57;64.51
27840;BME280;15207;42.182;24.308;2022-11-14T11:20:35;100139.38;;;13.83;64.56
27840;BME280;15207;42.182;24.308;2022-11-14T11:23:04;100129.56;;;14.17;62.87
27840;BME280;15207;42.182;24.308;2022-11-14T11:25:31;100137.16;;;13.88;64.49
27840;BME280;15207;42.182;24.308;2022-11-14T11:30:32;100132.13;;;13.72;63.33
27840;BME280;15207;42.182;24.308;2022-11-14T11:33:16;100125.06;;;13.94;64.96
27840;BME280;15207;42.182;24.308;2022-11-14T11:35:50;100130.31;;;14.07;64.25
27840;BME280;15207;42.182;24.308;2022-11-14T11:38:17;100126.88;;;13.82;64.34
27840;BME280;15207;42.182;24.308;2022-11-14T11:40:46;100118.31;;;13.77;65.52
27840;BME280;15207;42.182;24.308;2022-11-14T11:43:37;100124.06;;;13.95;65.25
27840;BME280;15207;42.182;24.308;2022-11-14T11:46:10;100122.97;;;13.86;64.66
27840;BME280;15207;42.182;24.308;2022-11-14T11:48:38;100116.00;;;13.61;66.13
27840;BME280;15207;42.182;24.308;2022-11-14T11:51:05;100121.75;;;13.56;67.21
27840;BME280;15207;42.182;24.308;2022-11-14T11:56:36;100106.44;;;13.57;66.23
27840;BME280;15207;42.182;24.308;2022-11-14T12:02:02;100106.47;;;13.68;66.77
27840;BME280;15207;42.182;24.308;2022-11-14T12:04:36;100113.91;;;13.87;65.62
27840;BME280;15207;42.182;24.308;2022-11-14T12:07:13;100103.97;;;13.88;65.64
27840;BME280;15207;42.182;24.308;2022-11-14T12:09:40;100099.97;;;13.59;66.02
27840;BME280;15207;42.182;24.308;2022-11-14T12:12:15;100103.88;;;13.55;65.85
27840;BME280;15207;42.182;24.308;2022-11-14T12:28:39;100092.50;;;13.74;66.21
27840;BME280;15207;42.182;24.308;2022-11-14T12:30:58;100089.56;;;13.55;67.63
27840;BME280;15207;42.182;24.308;2022-11-14T12:33:31;100087.72;;;13.55;67.56
27840;BME280;15207;42.182;24.308;2022-11-14T12:36:01;100083.94;;;13.81;67.04
27840;BME280;15207;42.182;24.308;2022-11-14T12:38:29;100079.66;;;13.67;67.23
27840;BME280;15207;42.182;24.308;2022-11-14T12:40:59;100071.81;;;13.86;67.00
27840;BME280;15207;42.182;24.308;2022-11-14T12:46:06;100073.28;;;14.02;65.47
27840;BME280;15207;42.182;24.308;2022-11-14T12:48:52;100075.09;;;14.01;65.12
27840;BME280;15207;42.182;24.308;2022-11-14T12:53:49;100073.53;;;13.87;65.61
27840;BME280;15207;42.182;24.308;2022-11-14T13:07:38;100061.88;;;13.87;65.10
27840;BME280;15207;42.182;24.308;2022-11-14T13:10:21;100070.41;;;14.15;64.46
27840;BME280;15207;42.182;24.308;2022-11-14T13:13:09;100074.47;;;14.09;65.24
27840;BME280;15207;42.182;24.308;2022-11-14T13:16:03;100067.25;;;14.10;64.92
27840;BME280;15207;42.182;24.308;2022-11-14T13:25:14;100060.41;;;14.06;65.21
27840;BME280;15207;42.182;24.308;2022-11-14T13:27:27;100056.75;;;13.95;65.56
27840;BME280;15207;42.182;24.308;2022-11-14T13:29:54;100059.69;;;14.04;65.28
27840;BME280;15207;42.182;24.308;2022-11-14T13:35:12;100061.28;;;14.06;65.18
27840;BME280;15207;42.182;24.308;2022-11-14T13:49:33;100044.75;;;13.88;66.29
27840;BME280;15207;42.182;24.308;2022-11-14T13:52:04;100048.19;;;13.90;66.63
27840;BME280;15207;42.182;24.308;2022-11-14T13:54:30;100049.53;;;13.96;66.47
27840;BME280;15207;42.182;24.308;2022-11-14T13:57:02;100044.16;;;13.96;66.81
27840;BME280;15207;42.182;24.308;2022-11-14T13:59:47;100045.09;;;14.06;66.10
27840;BME280;15207;42.182;24.308;2022-11-14T14:15:36;100030.53;;;13.97;66.03
27840;BME280;15207;42.182;24.308;2022-11-14T14:18:33;100027.84;;;13.97;66.47
27840;BME280;15207;42.182;24.308;2022-11-14T14:23:48;100027.41;;;13.81;67.01
27840;BME280;15207;42.182;24.308;2022-11-14T14:28:57;100028.28;;;13.81;67.16
27840;BME280;15207;42.182;24.308;2022-11-14T14:31:34;100028.28;;;13.81;66.89
27840;BME280;15207;42.182;24.308;2022-11-14T14:34:01;100027.31;;;13.71;67.74
27840;BME280;15207;42.182;24.308;2022-11-14T14:36:28;100029.38;;;13.67;67.71
27840;BME280;15207;42.182;24.308;2022-11-14T14:39:17;100027.78;;;13.65;67.99
27840;BME280;15207;42.182;24.308;2022-11-14T14:41:42;100028.28;;;13.58;68.27
27840;BME280;15207;42.182;24.308;2022-11-14T14:44:16;100022.28;;;13.55;69.19
27840;BME280;15207;42.182;24.308;2022-11-14T14:46:43;100027.06;;;13.62;69.04